Time;durP1;ratioP1;P1;durP2;ratioP2;P2;SDS_P1;SDS_P2;PMS_P1;PMS_P2;Temp;Humidity;BMP_temperature;BMP_pressure;BME280_temperature;BME280_humidity;BME280_pressure;Samples;Min_cycle;Max_cycle;Signal;HPM_P1;HPM_P2
2022/07/28 00:01:34;;;;;;;1.98;1.10;;;14.90;64.90;;;;;;5073202;28;20025;-38
2022/07/28 00:04:00;;;;;;;0.90;0.82;;;14.90;65.00;;;;;;5074666;28;20024;-38
2022/07/28 00:06:25;;;;;;;3.20;1.25;;;14.90;65.10;;;;;;5073165;28;20107;-38
2022/07/28 00:08:51;;;;;;;1.40;0.90;;;14.90;65.20;;;;;;5073570;28;20103;-38
2022/07/28 00:11:17;;;;;;;5.00;1.10;;;14.80;65.40;;;;;;5071365;28;20032;-38
2022/07/28 00:13:42;;;;;;;3.58;1.40;;;14.80;65.50;;;;;;5072697;28;20483;-40
2022/07/28 00:16:08;;;;;;;1.38;0.90;;;14.80;65.70;;;;;;5072585;28;20021;-40
2022/07/28 00:18:34;;;;;;;7.85;2.42;;;14.80;65.80;;;;;;5072835;28;20031;-39
2022/07/28 00:21:01;;;;;;;5.60;1.52;;;14.70;66.10;;;;;;5072669;28;20107;-40
2022/07/28 00:23:26;;;;;;;3.95;1.40;;;14.60;66.40;;;;;;5072947;28;20369;-40
2022/07/28 00:25:52;;;;;;;1.92;0.93;;;14.60;66.50;;;;;;5072549;28;20074;-38
2022/07/28 00:28:18;;;;;;;6.85;1.17;;;14.70;66.50;;;;;;5072778;28;20035;-38
2022/07/28 00:30:44;;;;;;;7.20;2.05;;;14.70;66.60;;;;;;5072508;28;20017;-38
2022/07/28 00:33:09;;;;;;;2.90;1.30;;;14.70;66.70;;;;;;5072525;28;20526;-43
2022/07/28 00:35:35;;;;;;;4.03;1.00;;;14.60;66.80;;;;;;5073918;28;20468;-40
2022/07/28 00:38:01;;;;;;;2.55;1.27;;;14.60;66.90;;;;;;5076844;28;20107;-39
2022/07/28 00:41:09;;;;;;;6.43;1.13;;;14.60;67.00;;;;;;5076118;28;20031;-38
2022/07/28 00:43:13;;;;;;;1.85;0.70;;;14.60;67.30;;;;;;5076046;28;20032;-38
2022/07/28 00:45:39;;;;;;;2.30;0.77;;;14.50;67.40;;;;;;5074728;28;20549;-40
2022/07/28 00:48:05;;;;;;;3.95;0.88;;;14.50;67.50;;;;;;5074378;28;20029;-37
2022/07/28 00:50:31;;;;;;;1.52;1.08;;;14.50;67.60;;;;;;5075960;28;20048;-38
2022/07/28 00:52:57;;;;;;;4.47;1.00;;;14.50;67.70;;;;;;5076487;28;20142;-37
2022/07/28 00:55:23;;;;;;;5.68;1.20;;;14.50;67.80;;;;;;5075743;28;20446;-38
2022/07/28 00:57:49;;;;;;;3.17;1.08;;;14.40;67.90;;;;;;5075925;28;20035;-40
2022/07/28 01:00:15;;;;;;;1.52;0.90;;;14.40;68.00;;;;;;5076207;28;20024;-38
2022/07/28 01:02:42;;;;;;;3.03;1.20;;;14.40;68.10;;;;;;5076324;28;20067;-38
2022/07/28 01:05:08;;;;;;;11.02;1.85;;;14.40;68.20;;;;;;5074203;28;20486;-38
2022/07/28 01:08:09;;;;;;;1.23;0.63;;;14.40;68.40;;;;;;5075730;28;20040;-38
2022/07/28 01:10:54;;;;;;;4.80;0.88;;;14.40;68.20;;;;;;5075708;28;20021;-40
2022/07/28 01:14:00;;;;;;;3.15;0.90;;;14.40;68.30;;;;;;5075746;28;20035;-39
2022/07/28 01:16:27;;;;;;;1.35;0.88;;;14.40;68.30;;;;;;5054712;28;20029;-37
2022/07/28 01:19:11;;;;;;;4.38;1.17;;;14.40;68.50;;;;;;5075327;28;20039;-37
2022/07/28 01:21:40;;;;;;;2.00;1.05;;;14.40;68.40;;;;;;5075735;28;20457;-39
2022/07/28 01:24:29;;;;;;;2.25;0.98;;;14.40;68.10;;;;;;5075152;28;20024;-39
2022/07/28 01:27:08;;;;;;;4.13;1.42;;;14.30;68.30;;;;;;5075576;28;20016;-39
2022/07/28 01:30:15;;;;;;;3.63;1.20;;;14.30;68.60;;;;;;5075007;28;20392;-39
2022/07/28 01:32:48;;;;;;;0.77;0.70;;;14.30;68.90;;;;;;5073872;28;20410;-39
2022/07/28 01:35:25;;;;;;;5.00;1.42;;;14.30;68.80;;;;;;5075629;28;20110;-39
2022/07/28 01:37:56;;;;;;;1.50;0.85;;;14.20;69.00;;;;;;5075259;28;20025;-39
2022/07/28 01:40:29;;;;;;;6.40;1.17;;;14.20;69.00;;;;;;5073474;28;20036;-39
2022/07/28 01:42:58;;;;;;;3.33;1.20;;;14.20;69.20;;;;;;5075292;28;20025;-39
2022/07/28 01:45:25;;;;;;;4.38;1.13;;;14.20;69.10;;;;;;5074787;28;20078;-38
2022/07/28 01:47:54;;;;;;;3.00;0.70;;;14.10;69.40;;;;;;5074698;28;20094;-38
2022/07/28 01:50:22;;;;;;;2.38;0.82;;;14.10;69.60;;;;;;5075160;28;20044;-38
2022/07/28 01:52:49;;;;;;;1.60;1.23;;;14.10;69.70;;;;;;5073555;28;20028;-41
2022/07/28 01:55:19;;;;;;;2.22;0.95;;;14.10;69.80;;;;;;5075398;28;20059;-39
2022/07/28 01:57:46;;;;;;;1.30;1.08;;;14.10;70.00;;;;;;5074681;28;20380;-40
2022/07/28 02:00:13;;;;;;;3.72;0.90;;;14.00;70.20;;;;;;5074926;28;20445;-38
2022/07/28 02:02:41;;;;;;;6.20;1.30;;;14.00;70.20;;;;;;5074589;28;20380;-40
2022/07/28 02:05:11;;;;;;;6.10;2.25;;;14.00;70.30;;;;;;5074444;28;20028;-38
2022/07/28 02:07:38;;;;;;;4.38;1.20;;;14.00;70.40;;;;;;5074796;28;20036;-37
2022/07/28 02:10:05;;;;;;;6.63;1.30;;;14.00;70.40;;;;;;5074295;28;20035;-38
2022/07/28 02:12:33;;;;;;;8.35;1.13;;;13.90;70.60;;;;;;5074274;28;20024;-38
2022/07/28 02:14:59;;;;;;;3.17;1.20;;;13.90;70.80;;;;;;5074563;28;20461;-37
2022/07/28 02:17:30;;;;;;;4.55;0.90;;;13.90;70.70;;;;;;5074225;28;20074;-38
2022/07/28 02:19:57;;;;;;;1.15;0.82;;;13.80;70.90;;;;;;5074540;28;20439;-38
2022/07/28 02:22:25;;;;;;;7.80;1.75;;;13.80;71.20;;;;;;5074441;28;20050;-38
2022/07/28 02:24:52;;;;;;;1.95;1.13;;;13.80;71.50;;;;;;5074362;28;20066;-38
2022/07/28 02:27:37;;;;;;;2.70;1.17;;;13.80;71.60;;;;;;5074055;28;20078;-37
2022/07/28 02:30:15;;;;;;;2.03;1.40;;;13.70;71.80;;;;;;5074930;28;20452;-38
2022/07/28 02:32:54;;;;;;;3.03;1.05;;;13.70;71.90;;;;;;5074216;28;20024;-38
2022/07/28 02:35:38;;;;;;;4.70;0.85;;;13.70;72.00;;;;;;5074190;28;20058;-38
2022/07/28 02:38:12;;;;;;;2.92;1.08;;;13.70;72.10;;;;;;5074457;28;20025;-38
2022/07/28 02:40:41;;;;;;;6.40;1.15;;;13.60;72.20;;;;;;5074196;28;20391;-38
2022/07/28 02:43:14;;;;;;;2.95;1.30;;;13.70;72.20;;;;;;5074200;28;20021;-39
2022/07/28 02:45:45;;;;;;;5.18;1.10;;;13.60;72.20;;;;;;5073874;28;20048;-38
2022/07/28 02:48:14;;;;;;;4.35;1.42;;;13.50;72.40;;;;;;5073667;28;20112;-38
2022/07/28 02:50:41;;;;;;;7.43;1.00;;;13.50;72.70;;;;;;5073714;28;20044;-40
2022/07/28 02:53:08;;;;;;;1.73;0.93;;;13.50;72.80;;;;;;5073845;28;20017;-39
2022/07/28 02:55:35;;;;;;;4.10;1.35;;;13.40;72.80;;;;;;5073599;28;20020;-40
2022/07/28 02:58:03;;;;;;;2.00;1.27;;;13.40;72.90;;;;;;5073333;28;20032;-40
2022/07/28 03:00:29;;;;;;;3.03;1.10;;;13.40;73.00;;;;;;5073780;28;20103;-39
2022/07/28 03:02:56;;;;;;;5.95;1.17;;;13.40;73.00;;;;;;5073295;28;20081;-38
2022/07/28 03:05:21;;;;;;;2.20;1.02;;;13.30;73.20;;;;;;5073769;28;20033;-39
2022/07/28 03:07:51;;;;;;;2.40;1.20;;;13.30;73.30;;;;;;5073737;28;20036;-38
2022/07/28 03:10:27;;;;;;;4.50;1.08;;;13.30;73.40;;;;;;5071982;28;20020;-41
2022/07/28 03:12:54;;;;;;;4.45;1.30;;;13.30;73.40;;;;;;5073586;28;20100;-39
2022/07/28 03:15:19;;;;;;;5.57;1.88;;;13.30;73.40;;;;;;5073502;28;20031;-39
2022/07/28 03:17:45;;;;;;;2.45;1.00;;;13.30;73.50;;;;;;5072699;28;20020;-40
2022/07/28 03:20:11;;;;;;;3.85;0.90;;;13.30;73.60;;;;;;5073246;28;20095;-39
2022/07/28 03:22:38;;;;;;;3.60;1.27;;;13.30;73.60;;;;;;5073420;28;20082;-40
2022/07/28 03:25:15;;;;;;;3.30;1.30;;;13.30;73.60;;;;;;5073043;28;20024;-40
2022/07/28 03:27:45;;;;;;;2.20;1.00;;;13.30;73.60;;;;;;5073189;28;20039;-39
2022/07/28 03:30:14;;;;;;;1.63;1.03;;;13.30;73.50;;;;;;5073445;28;20456;-39
2022/07/28 19:46:28;;;;;;;1.25;1.00;;;21.30;48.20;;;;;;5111766;27;20421;-38
2022/07/28 19:48:54;;;;;;;3.72;1.83;;;21.30;48.20;;;;;;5109593;28;20028;-39
2022/07/28 19:51:20;;;;;;;2.85;1.75;;;21.30;48.20;;;;;;5110976;28;20028;-40
2022/07/28 19:53:47;;;;;;;4.15;1.17;;;21.30;48.10;;;;;;5109765;28;20073;-39
2022/07/28 19:56:13;;;;;;;9.40;1.65;;;21.30;48.10;;;;;;5111329;28;20061;-41
2022/07/28 19:58:38;;;;;;;5.05;1.20;;;21.30;48.10;;;;;;5110868;28;20039;-38
2022/07/28 20:01:05;;;;;;;7.07;1.88;;;21.30;48.00;;;;;;5111017;28;20376;-39
2022/07/28 20:03:31;;;;;;;4.10;1.85;;;21.30;48.20;;;;;;5110637;28;20039;-40
2022/07/28 20:05:57;;;;;;;4.85;1.30;;;21.30;48.20;;;;;;5111820;28;20027;-41
2022/07/28 20:08:23;;;;;;;5.70;1.63;;;21.20;48.20;;;;;;5110959;28;20579;-40
2022/07/28 20:10:50;;;;;;;4.65;1.35;;;21.20;48.30;;;;;;5109347;28;20027;-39
2022/07/28 20:13:16;;;;;;;2.53;1.25;;;21.20;48.40;;;;;;5110605;28;20020;-40
2022/07/28 20:15:42;;;;;;;4.60;1.33;;;21.20;48.40;;;;;;5110910;28;20092;-38
2022/07/28 20:18:07;;;;;;;8.80;1.50;;;21.20;48.50;;;;;;5109413;28;20020;-39
2022/07/28 20:20:33;;;;;;;2.15;1.27;;;21.20;48.50;;;;;;5110890;28;20038;-39
2022/07/28 20:22:59;;;;;;;4.63;1.50;;;21.10;48.30;;;;;;5110991;28;20495;-39
2022/07/28 20:25:24;;;;;;;5.20;2.13;;;21.10;48.30;;;;;;5109178;28;20055;-39
2022/07/28 20:27:50;;;;;;;5.63;1.30;;;21.10;48.50;;;;;;5109179;28;20062;-40
2022/07/28 20:30:16;;;;;;;3.58;1.20;;;21.10;48.40;;;;;;5109075;28;20023;-40
2022/07/28 20:32:43;;;;;;;11.13;1.25;;;21.10;48.20;;;;;;5110352;28;20136;-39
2022/07/28 20:35:09;;;;;;;7.18;3.13;;;21.10;48.20;;;;;;5110741;28;20494;-39
2022/07/28 20:37:35;;;;;;;3.17;1.20;;;21.10;48.20;;;;;;5110368;28;20024;-39
2022/07/28 20:40:01;;;;;;;2.85;1.42;;;21.00;48.10;;;;;;5110080;28;20020;-39
2022/07/28 20:42:27;;;;;;;9.63;1.50;;;21.00;48.20;;;;;;5108890;28;20035;-39
2022/07/28 20:44:52;;;;;;;4.35;1.30;;;21.00;48.20;;;;;;5109820;28;20047;-39
2022/07/28 20:47:21;;;;;;;3.25;1.45;;;21.00;48.30;;;;;;5110281;28;20077;-39
2022/07/28 20:49:47;;;;;;;2.35;1.10;;;20.90;48.10;;;;;;5109853;28;20035;-39
2022/07/28 20:52:13;;;;;;;6.28;1.75;;;20.90;48.30;;;;;;5109997;28;20089;-40
2022/07/28 20:54:38;;;;;;;9.73;1.25;;;21.00;48.20;;;;;;5108633;28;20040;-40
2022/07/28 20:57:04;;;;;;;2.13;1.17;;;21.00;48.10;;;;;;5100451;28;20024;-39
2022/07/28 20:59:30;;;;;;;4.18;1.00;;;21.00;48.20;;;;;;5096003;28;20020;-39
2022/07/28 21:01:55;;;;;;;2.90;1.55;;;20.90;48.20;;;;;;5096169;28;20027;-38
2022/07/28 21:04:22;;;;;;;4.40;1.52;;;20.90;48.10;;;;;;5096245;28;20116;-39
2022/07/28 21:06:48;;;;;;;5.45;1.33;;;20.80;48.10;;;;;;5096396;28;20016;-40
2022/07/28 21:09:13;;;;;;;1.95;1.20;;;20.90;48.20;;;;;;5096011;28;20456;-39
2022/07/28 21:11:39;;;;;;;3.67;1.50;;;20.90;48.20;;;;;;5095817;28;20028;-40
2022/07/28 21:14:05;;;;;;;1.25;1.15;;;20.80;48.10;;;;;;5095904;28;20016;-40
2022/07/28 21:16:30;;;;;;;5.50;1.83;;;20.80;48.10;;;;;;5095706;28;20443;-38
2022/07/28 21:18:57;;;;;;;3.40;0.88;;;20.80;48.20;;;;;;5095736;28;20031;-39
2022/07/28 21:21:22;;;;;;;5.95;1.20;;;20.80;48.10;;;;;;5096106;28;20012;-39
2022/07/28 21:23:48;;;;;;;7.90;1.60;;;20.80;48.10;;;;;;5096236;28;20026;-39
2022/07/28 21:26:16;;;;;;;2.50;0.95;;;20.80;48.30;;;;;;5095622;28;20030;-39
2022/07/28 21:31:26;;;;;;;7.25;2.30;;;20.70;48.20;;;;;;5096118;28;20073;-38
2022/07/28 21:33:52;;;;;;;4.07;1.13;;;20.70;48.30;;;;;;5094762;28;20028;-40
2022/07/28 21:36:18;;;;;;;5.55;1.92;;;20.70;48.40;;;;;;5096134;28;20032;-40
2022/07/28 21:38:57;;;;;;;;;;;;;;;;;;;;;
2022/07/28 21:41:24;;;;;;;8.50;1.63;;;20.70;48.30;;;;;;5093424;28;20109;-38
2022/07/28 21:43:55;;;;;;;3.80;1.65;;;20.70;48.40;;;;;;5095320;28;20024;-39
2022/07/28 21:46:22;;;;;;;2.22;0.90;;;20.70;48.40;;;;;;5099354;28;20051;-39
2022/07/28 21:48:58;;;;;;;7.13;1.90;;;20.60;48.50;;;;;;5095528;28;20027;-40
2022/07/28 21:51:28;;;;;;;8.00;1.80;;;20.50;48.60;;;;;;5095743;28;20034;-45
2022/07/28 21:53:54;;;;;;;4.35;1.55;;;20.50;48.50;;;;;;5095319;28;20152;-39
2022/07/28 21:56:20;;;;;;;4.63;2.35;;;20.50;48.60;;;;;;5095374;28;20039;-39
2022/07/28 21:58:46;;;;;;;4.20;1.20;;;20.40;48.60;;;;;;5095526;28;20024;-39
2022/07/28 22:01:12;;;;;;;7.53;1.90;;;20.40;48.80;;;;;;5095841;28;20031;-38
2022/07/28 22:03:39;;;;;;;1.60;1.45;;;20.40;49.00;;;;;;5094850;28;20032;-38
2022/07/28 22:06:06;;;;;;;2.90;1.55;;;20.40;49.20;;;;;;5095034;28;20035;-39
2022/07/28 22:08:32;;;;;;;6.93;1.45;;;20.30;49.10;;;;;;5094447;28;20024;-39
2022/07/28 22:10:59;;;;;;;3.20;1.40;;;20.30;49.30;;;;;;5094944;28;20039;-39
2022/07/28 22:13:25;;;;;;;5.93;1.45;;;20.30;49.10;;;;;;5094816;28;20024;-39
2022/07/28 22:15:50;;;;;;;2.63;1.63;;;20.30;49.40;;;;;;5095097;28;20380;-38
2022/07/28 22:18:16;;;;;;;3.30;1.20;;;20.30;49.40;;;;;;5094811;28;20034;-38
2022/07/28 22:20:42;;;;;;;5.00;1.55;;;20.30;49.50;;;;;;5093340;28;20514;-38
2022/07/28 22:23:08;;;;;;;5.88;2.00;;;20.20;49.70;;;;;;5094902;28;20028;-38
2022/07/28 22:25:34;;;;;;;3.58;1.38;;;20.20;49.90;;;;;;5094544;28;20024;-39
2022/07/28 22:28:00;;;;;;;4.57;1.55;;;20.10;49.90;;;;;;5095168;28;20016;-39
2022/07/28 22:30:26;;;;;;;1.83;1.27;;;20.10;50.00;;;;;;5094946;28;20027;-39
2022/07/28 22:32:52;;;;;;;4.68;2.70;;;20.00;50.20;;;;;;5093207;28;20028;-43
2022/07/28 22:35:18;;;;;;;4.13;1.88;;;20.00;50.30;;;;;;5094718;28;20036;-39
2022/07/28 22:37:45;;;;;;;4.72;1.10;;;19.90;50.40;;;;;;5093185;28;20028;-39
2022/07/28 22:40:11;;;;;;;4.95;1.42;;;19.90;50.60;;;;;;5094802;28;20040;-39
2022/07/28 22:42:37;;;;;;;3.55;1.52;;;19.80;50.60;;;;;;5094028;28;20123;-39
2022/07/28 22:45:04;;;;;;;5.20;2.03;;;19.80;50.70;;;;;;5093881;28;20040;-38
2022/07/28 22:47:30;;;;;;;7.97;2.15;;;19.80;50.80;;;;;;5094136;28;20040;-39
2022/07/28 22:49:56;;;;;;;5.70;1.70;;;19.80;51.00;;;;;;5092638;28;20491;-38
2022/07/28 22:52:28;;;;;;;2.75;1.17;;;19.80;51.00;;;;;;5093926;28;20026;-39
2022/07/28 22:54:55;;;;;;;3.65;1.45;;;19.70;51.10;;;;;;5092513;28;20028;-39
2022/07/28 22:57:21;;;;;;;6.10;1.75;;;19.70;51.30;;;;;;5094370;28;20471;-39
2022/07/28 22:59:47;;;;;;;3.25;1.13;;;19.60;51.30;;;;;;5093974;28;20040;-39
2022/07/28 23:02:13;;;;;;;1.35;1.00;;;19.50;51.40;;;;;;5075550;28;20028;-38
2022/07/28 23:04:39;;;;;;;4.00;2.10;;;19.50;51.40;;;;;;5092994;28;20445;-39
2022/07/28 23:07:08;;;;;;;3.80;1.10;;;19.50;51.40;;;;;;5094095;28;20460;-39
2022/07/28 23:09:34;;;;;;;2.90;2.25;;;19.50;51.30;;;;;;5093585;28;20024;-39
2022/07/28 23:12:00;;;;;;;9.18;3.15;;;19.50;51.50;;;;;;5092371;28;20035;-39
2022/07/28 23:14:26;;;;;;;3.58;1.70;;;19.50;51.50;;;;;;5093586;28;20024;-39
2022/07/28 23:16:51;;;;;;;6.13;1.40;;;19.40;51.60;;;;;;5093401;28;20356;-39
2022/07/28 23:19:17;;;;;;;8.13;1.83;;;19.40;51.60;;;;;;5093178;28;20028;-39
2022/07/28 23:21:43;;;;;;;5.82;1.70;;;19.40;51.60;;;;;;5093433;28;20043;-39
2022/07/28 23:24:08;;;;;;;6.45;2.03;;;19.40;51.50;;;;;;5093519;28;20035;-39
2022/07/28 23:26:34;;;;;;;2.10;0.80;;;19.40;51.40;;;;;;5093534;28;20048;-38
2022/07/28 23:29:00;;;;;;;5.70;2.28;;;19.40;51.50;;;;;;5093369;28;20472;-38
2022/07/28 23:31:25;;;;;;;2.72;1.27;;;19.40;51.40;;;;;;5093471;28;20379;-38
2022/07/28 23:33:54;;;;;;;4.57;1.15;;;19.40;51.30;;;;;;5093577;28;20055;-38
2022/07/28 23:36:20;;;;;;;3.28;1.30;;;19.40;51.50;;;;;;5092616;28;20032;-38
2022/07/28 23:38:45;;;;;;;2.67;1.00;;;19.40;51.40;;;;;;5093356;28;20365;-43
2022/07/28 23:41:13;;;;;;;5.55;1.10;;;19.40;51.40;;;;;;5093081;28;20527;-38
2022/07/28 23:43:39;;;;;;;5.00;1.20;;;19.40;51.40;;;;;;5093127;28;20471;-38
2022/07/28 23:46:06;;;;;;;2.22;1.23;;;19.40;51.30;;;;;;5093135;28;20162;-38
2022/07/28 23:48:31;;;;;;;4.25;1.40;;;19.30;51.40;;;;;;5093430;28;20066;-39
2022/07/28 23:50:57;;;;;;;5.57;1.02;;;19.30;51.50;;;;;;5093766;28;20032;-39
2022/07/28 23:53:23;;;;;;;1.92;0.77;;;19.30;51.40;;;;;;5093365;28;20031;-39
2022/07/28 23:55:49;;;;;;;2.20;1.23;;;19.30;51.30;;;;;;5093336;28;20391;-39
2022/07/28 23:58:15;;;;;;;3.10;1.30;;;19.30;51.20;;;;;;5093093;28;20020;-39
